Terminal Aerodrome Forecast
Issued by NWS Mt. Holly, NJ

Home | Current Version | Previous Version | Text Only | Print | Product List | Glossary On
Versions: 1 2 3 4 5 6 7 8 9 10 11 12 13 14 15 16 17 18 19 20 21 22 23 24 25 26
000
FTUS41 KPHI 042005 AAA
TAFABE
TAF AMD
KABE 042005Z 0420/0518 21007KT 3SM BR OVC050
      TEMPO 0420/0422 2SM -RA BR BKN025 OVC070
     FM042200 32004KT 4SM -RA BR OVC015
     FM050000 31003KT 3SM -RA BR OVC009
     FM050200 31006KT 2SM -PL BR OVC005
     FM050400 34010KT 1/2SM SN VV002
     FM051500 34008KT 3SM BR OVC020=

USA.gov is the U.S. government's official web portal to all federal, state and local government web resources and services.